createdAt,value
2023-05-08T00:02:53.709Z,100257.22
2023-05-08T00:06:31.046Z,100260.53
2023-05-08T00:09:35.311Z,100262.13
2023-05-08T00:12:53.370Z,100273.84
2023-05-08T00:16:12.112Z,100269.91
2023-05-08T00:19:30.466Z,100222.38
2023-05-08T00:23:10.299Z,100265.72
2023-05-08T00:26:26.435Z,100242.06
2023-05-08T00:29:33.687Z,100230.19
2023-05-08T00:32:40.548Z,100237.59
2023-05-08T00:35:46.252Z,100250.50
2023-05-08T00:39:19.256Z,100245.13
2023-05-08T00:42:36.014Z,100228.09
2023-05-08T00:45:43.155Z,100225.81
2023-05-08T00:49:08.043Z,100244.94
2023-05-08T00:53:19.903Z,100236.84
2023-05-08T00:56:35.356Z,100187.41
2023-05-08T01:04:13.225Z,100094.19
2023-05-08T01:07:50.726Z,100112.66
2023-05-08T01:11:18.448Z,100202.63
2023-05-08T01:14:51.681Z,100187.34
2023-05-08T01:18:18.381Z,100197.25
2023-05-08T01:21:32.083Z,100188.34
2023-05-08T01:24:57.207Z,100183.25
2023-05-08T01:28:36.115Z,100177.22
2023-05-08T01:32:19.161Z,100168.53
2023-05-08T01:35:33.864Z,100160.53
2023-05-08T01:39:13.133Z,100156.66
2023-05-08T01:42:41.209Z,100150.41
2023-05-08T01:45:49.616Z,100142.06
2023-05-08T01:49:06.428Z,100115.84
2023-05-08T01:52:35.836Z,100119.94
2023-05-08T01:56:22.307Z,100063.06
2023-05-08T02:00:39.150Z,100074.81
2023-05-08T02:04:14.442Z,100050.84
2023-05-08T02:13:21.115Z,100003.47
2023-05-08T02:19:55.954Z,100002.09
2023-05-08T02:35:44.363Z,99983.03
2023-05-08T02:39:58.602Z,99995.06
2023-05-08T02:43:57.724Z,100011.88
2023-05-08T02:48:45.609Z,99917.50
2023-05-08T02:52:40.748Z,99991.94
2023-05-08T02:55:51.719Z,99996.81
2023-05-08T03:07:31.550Z,99876.81
2023-05-08T03:11:02.250Z,99874.84
2023-05-08T03:20:33.985Z,99886.97
2023-05-08T03:24:10.988Z,99919.94
2023-05-08T03:27:22.875Z,99947.50
2023-05-08T03:30:44.672Z,99940.56
2023-05-08T03:34:00.135Z,99907.88
2023-05-08T03:37:09.754Z,99908.00
2023-05-08T03:40:21.817Z,99894.69
2023-05-08T03:43:29.715Z,99925.94
2023-05-08T03:46:37.756Z,99809.28
2023-05-08T03:49:49.416Z,99912.22
2023-05-08T03:53:06.263Z,99875.53
2023-05-08T04:10:28.007Z,99880.69
2023-05-08T04:18:19.403Z,99871.69
2023-05-08T04:21:31.875Z,99726.91
2023-05-08T04:25:32.517Z,99728.81
2023-05-08T04:29:37.090Z,99780.88
2023-05-08T04:32:53.123Z,99815.84
2023-05-08T04:37:01.575Z,99789.00
2023-05-08T04:53:12.779Z,99781.13
2023-05-08T05:07:24.554Z,99719.91
2023-05-08T05:10:36.813Z,99641.97
2023-05-08T05:14:33.402Z,99679.28
2023-05-08T05:17:37.578Z,99733.16
2023-05-08T05:20:42.173Z,99742.56
2023-05-08T05:23:46.485Z,99735.44
2023-05-08T05:26:56.557Z,99704.22
2023-05-08T05:30:04.368Z,99720.59
2023-05-08T05:33:15.455Z,99708.34
2023-05-08T05:36:20.310Z,99682.91
2023-05-08T05:39:24.486Z,99697.44
2023-05-08T05:42:35.620Z,99683.75
2023-05-08T05:45:40.930Z,99699.66
2023-05-08T05:48:47.233Z,99685.91
2023-05-08T05:51:51.559Z,99664.38
2023-05-08T05:54:55.617Z,99686.66
2023-05-08T05:58:02.475Z,99679.16
2023-05-08T06:01:06.590Z,99673.13
2023-05-08T06:04:12.018Z,99663.75
2023-05-08T06:15:05.954Z,99632.13
2023-05-08T06:18:19.486Z,99623.03
2023-05-08T06:26:26.345Z,99547.13
2023-05-08T06:30:39.160Z,99589.53
2023-05-08T06:41:47.189Z,99474.06
2023-05-08T06:48:05.617Z,99569.03
2023-05-08T06:51:12.948Z,99584.16
2023-05-08T06:54:24.860Z,99589.41
2023-05-08T06:57:31.593Z,99607.50
2023-05-08T07:00:54.711Z,99608.22
2023-05-08T07:04:03.541Z,99602.94
2023-05-08T07:07:15.175Z,99568.06
2023-05-08T07:10:57.541Z,99600.09
2023-05-08T07:14:22.041Z,99596.75
2023-05-08T07:18:37.809Z,99496.81
2023-05-08T07:22:42.888Z,99600.47
2023-05-08T07:26:55.671Z,99601.81
2023-05-08T07:34:47.116Z,99511.34
2023-05-08T07:38:33.369Z,99511.59
2023-05-08T07:41:49.879Z,99565.47
2023-05-08T07:45:10.799Z,99602.94
2023-05-08T07:48:46.959Z,99539.41
2023-05-08T07:52:19.198Z,99585.69
2023-05-08T07:55:30.336Z,99591.81
2023-05-08T07:59:19.236Z,99517.13
2023-05-08T08:03:01.694Z,99602.22
2023-05-08T08:06:26.985Z,99566.06
2023-05-08T08:22:43.925Z,99620.13
2023-05-08T08:26:44.138Z,99630.00
2023-05-08T08:30:27.584Z,99664.72
2023-05-08T08:39:15.491Z,99699.69
2023-05-08T08:42:14.748Z,99786.09
2023-05-08T08:45:21.692Z,99744.00
2023-05-08T08:48:29.328Z,99766.72
2023-05-08T08:51:51.963Z,99772.09
2023-05-08T08:55:04.045Z,99776.56
2023-05-08T08:58:24.310Z,99796.72
2023-05-08T09:01:39.778Z,99816.44
2023-05-08T09:04:45.473Z,99839.22
2023-05-08T09:07:50.933Z,99831.03
2023-05-08T09:11:02.222Z,99867.59
2023-05-08T09:14:15.871Z,99843.97
2023-05-08T09:17:23.034Z,99857.75
2023-05-08T09:21:32.085Z,99825.38
2023-05-08T09:24:30.172Z,99894.81
2023-05-08T09:27:36.947Z,99895.34
2023-05-08T09:30:52.658Z,99916.31
2023-05-08T09:33:56.598Z,99898.28
2023-05-08T09:37:06.222Z,99920.81
2023-05-08T09:40:27.812Z,99921.84
2023-05-08T09:43:46.358Z,99872.59
2023-05-08T09:47:12.125Z,99930.00
2023-05-08T09:50:17.386Z,99909.75
2023-05-08T09:53:31.418Z,99883.56
2023-05-08T09:56:41.381Z,99868.16
2023-05-08T09:59:48.480Z,99867.59
2023-05-08T10:03:01.390Z,99879.47
2023-05-08T10:06:15.805Z,99870.59
2023-05-08T10:09:23.179Z,99874.72
2023-05-08T10:12:32.312Z,99878.28
2023-05-08T10:15:39.516Z,99838.84
2023-05-08T10:18:52.039Z,99876.00
2023-05-08T10:22:03.325Z,99901.28
2023-05-08T10:25:16.298Z,99933.50
2023-05-08T10:28:29.091Z,99936.09
2023-05-08T10:31:37.545Z,99939.31
2023-05-08T10:34:43.109Z,99942.09
2023-05-08T10:37:46.867Z,99958.28
2023-05-08T10:41:01.602Z,99959.34
2023-05-08T10:44:07.012Z,99976.78
2023-05-08T10:47:50.675Z,99982.50
2023-05-08T10:51:17.988Z,100003.94
2023-05-08T10:55:05.307Z,100013.31
2023-05-08T10:58:31.979Z,100032.97
2023-05-08T11:01:44.625Z,100032.19
2023-05-08T11:04:51.039Z,99977.75
2023-05-08T11:07:59.608Z,100010.19
2023-05-08T11:11:24.853Z,100007.38
2023-05-08T11:14:38.644Z,100015.28
2023-05-08T11:17:55.068Z,100053.78
2023-05-08T11:21:14.955Z,100053.50
2023-05-08T11:24:31.637Z,99972.81
2023-05-08T11:27:49.711Z,100037.50
2023-05-08T11:30:57.175Z,100028.75
2023-05-08T11:34:01.449Z,100036.78
2023-05-08T11:37:10.900Z,100051.63
2023-05-08T11:41:05.482Z,100062.59
2023-05-08T11:44:23.807Z,100055.13
2023-05-08T11:47:46.375Z,100069.06
2023-05-08T11:50:56.147Z,100050.28
2023-05-08T11:54:01.473Z,100047.63
2023-05-08T11:57:05.470Z,100043.31
2023-05-08T12:00:14.233Z,100049.81
2023-05-08T12:03:23.604Z,100032.63
2023-05-08T12:06:32.662Z,100049.56
2023-05-08T12:09:38.905Z,100039.59
2023-05-08T12:12:45.921Z,100077.75
2023-05-08T12:15:51.665Z,100082.38
2023-05-08T12:18:57.626Z,100082.16
2023-05-08T12:22:02.102Z,100085.41
2023-05-08T12:25:08.660Z,100096.81
2023-05-08T12:28:18.458Z,100045.66
2023-05-08T12:31:35.446Z,100004.00
2023-05-08T12:34:49.284Z,99941.19
2023-05-08T12:38:13.321Z,100097.38
2023-05-08T12:41:24.925Z,100050.59
2023-05-08T12:44:33.187Z,100078.06
2023-05-08T12:47:54.018Z,100073.06
2023-05-08T12:51:08.412Z,100089.16
2023-05-08T12:54:13.951Z,100079.59
2023-05-08T12:57:24.462Z,100068.47
2023-05-08T13:00:41.846Z,100089.22
2023-05-08T13:04:15.798Z,100091.53
2023-05-08T13:07:20.548Z,99953.56
2023-05-08T13:10:55.664Z,99978.22
2023-05-08T13:14:04.251Z,100069.56
2023-05-08T13:17:12.800Z,100069.44
2023-05-08T13:20:26.360Z,100099.38
2023-05-08T13:23:30.616Z,100011.81
2023-05-08T13:26:37.550Z,100077.00
2023-05-08T13:29:55.301Z,100083.34
2023-05-08T13:33:00.024Z,100054.84
2023-05-08T13:36:06.124Z,100054.97
2023-05-08T13:39:22.856Z,100078.53
2023-05-08T13:42:27.466Z,99979.38
2023-05-08T13:45:33.219Z,100071.03
2023-05-08T13:48:37.326Z,100073.91
2023-05-08T13:51:42.670Z,100080.19
2023-05-08T13:54:49.516Z,100077.88
2023-05-08T13:57:54.698Z,100075.50
2023-05-08T14:01:00.350Z,100073.31
2023-05-08T14:04:07.071Z,100072.78
2023-05-08T14:07:11.274Z,100065.81
2023-05-08T14:10:17.681Z,100069.53
2023-05-08T14:13:21.721Z,100070.22
2023-05-08T14:16:25.628Z,100077.25
2023-05-08T14:19:31.225Z,100079.56
2023-05-08T14:22:35.117Z,100081.09
2023-05-08T14:25:39.177Z,100082.31
2023-05-08T14:28:43.506Z,100076.16
2023-05-08T14:31:47.495Z,100067.97
2023-05-08T14:34:59.676Z,99962.72
2023-05-08T14:38:04.004Z,100080.63
2023-05-08T14:41:07.874Z,100058.16
2023-05-08T14:44:11.854Z,100099.13
2023-05-08T14:47:15.772Z,100103.44
2023-05-08T14:50:22.999Z,100087.72
2023-05-08T14:53:27.255Z,100095.31
2023-05-08T14:56:40.425Z,100091.22
2023-05-08T14:59:54.841Z,100087.19
2023-05-08T15:02:59.778Z,100074.13
2023-05-08T15:06:05.469Z,100065.38
2023-05-08T15:09:13.284Z,100083.72
2023-05-08T15:12:17.092Z,100093.63
2023-05-08T15:15:21.316Z,100082.47
2023-05-08T15:18:29.060Z,100070.22
2023-05-08T15:21:33.152Z,100078.16
2023-05-08T15:24:36.989Z,100087.63
2023-05-08T15:27:42.538Z,100083.81
2023-05-08T15:30:47.646Z,100082.00
2023-05-08T15:33:54.282Z,100072.47
2023-05-08T15:36:58.582Z,100056.78
2023-05-08T15:40:06.020Z,100055.09
2023-05-08T15:43:10.446Z,100065.81
2023-05-08T15:46:17.043Z,100072.72
2023-05-08T15:49:26.416Z,100062.88
2023-05-08T15:52:30.457Z,100068.09
2023-05-08T15:55:34.237Z,100061.78
2023-05-08T15:58:39.806Z,100040.00
2023-05-08T16:01:43.665Z,100061.59
2023-05-08T16:04:48.137Z,100048.53
2023-05-08T16:07:52.641Z,100056.03
2023-05-08T16:10:56.854Z,100051.34
2023-05-08T16:14:02.836Z,100046.59
2023-05-08T16:17:11.190Z,100045.22
2023-05-08T16:20:15.079Z,100038.19
2023-05-08T16:23:19.108Z,100039.56
2023-05-08T16:26:23.128Z,100032.09
2023-05-08T16:29:27.240Z,100025.34
2023-05-08T16:32:33.128Z,100021.34
2023-05-08T16:35:36.970Z,100015.25
2023-05-08T16:38:40.787Z,100017.94
2023-05-08T16:41:58.417Z,99875.22
2023-05-08T16:45:02.713Z,99991.53
2023-05-08T16:48:08.162Z,99996.09
2023-05-08T16:51:12.558Z,100003.47
2023-05-08T16:54:18.434Z,99997.03
2023-05-08T16:57:21.912Z,100013.19
2023-05-08T17:00:29.072Z,100002.25
2023-05-08T17:03:32.952Z,99987.28
2023-05-08T17:06:37.093Z,99983.31
2023-05-08T17:09:41.374Z,99983.22
2023-05-08T17:12:45.955Z,99970.09
2023-05-08T17:15:49.845Z,99992.88
2023-05-08T17:18:53.908Z,99988.59
2023-05-08T17:21:59.577Z,99995.53
2023-05-08T17:25:03.516Z,99999.41
2023-05-08T17:28:07.339Z,99989.41
2023-05-08T17:31:11.469Z,99989.03
2023-05-08T17:34:15.655Z,99991.94
2023-05-08T17:37:21.296Z,99962.91
2023-05-08T17:40:26.740Z,99974.00
2023-05-08T17:43:43.571Z,99856.06
2023-05-08T17:46:53.780Z,99912.50
2023-05-08T17:50:00.469Z,99990.78
2023-05-08T17:53:05.120Z,99973.06
2023-05-08T17:56:10.154Z,99963.03
2023-05-08T17:59:14.004Z,99946.00
2023-05-08T18:02:18.058Z,99953.59
2023-05-08T18:05:22.140Z,99949.84
2023-05-08T18:08:31.181Z,99961.22
2023-05-08T18:11:35.166Z,99867.88
2023-05-08T18:14:39.219Z,99934.22
2023-05-08T18:17:45.801Z,99959.25
2023-05-08T18:20:49.954Z,99949.13
2023-05-08T18:23:53.870Z,99948.22
2023-05-08T18:26:57.982Z,99953.31
2023-05-08T18:30:01.867Z,99964.06
2023-05-08T18:33:11.167Z,99958.88
2023-05-08T18:36:17.443Z,99904.59
2023-05-08T18:39:23.766Z,99948.88
2023-05-08T18:42:27.658Z,99919.41
2023-05-08T18:45:32.368Z,99821.78
2023-05-08T18:48:57.045Z,99953.28
2023-05-08T18:52:01.585Z,99943.97
2023-05-08T18:55:05.921Z,99935.31
2023-05-08T18:58:09.992Z,99952.31
2023-05-08T19:01:14.076Z,99954.25
2023-05-08T19:04:18.181Z,99941.69
2023-05-08T19:07:21.967Z,99931.34
2023-05-08T19:10:26.021Z,99929.56
2023-05-08T19:13:30.379Z,99919.88
2023-05-08T19:16:34.674Z,99938.09
2023-05-08T19:19:38.512Z,99928.78
2023-05-08T19:22:42.671Z,99919.66
2023-05-08T19:25:46.653Z,99917.75
2023-05-08T19:28:50.718Z,99915.91
2023-05-08T19:31:57.732Z,99917.84
2023-05-08T19:35:03.457Z,99906.53
2023-05-08T19:38:08.764Z,99914.59
2023-05-08T19:41:17.911Z,99909.25
2023-05-08T19:44:21.855Z,99887.31
2023-05-08T19:47:25.970Z,99915.91
2023-05-08T19:50:34.229Z,99803.81
2023-05-08T19:53:46.022Z,99913.78
2023-05-08T19:56:49.923Z,99906.88
2023-05-08T20:00:05.071Z,99925.38
2023-05-08T20:03:10.315Z,99895.28
2023-05-08T20:06:17.602Z,99869.75
2023-05-08T20:09:23.584Z,99907.13
2023-05-08T20:12:27.823Z,99914.88
2023-05-08T20:15:34.508Z,99935.91
2023-05-08T20:18:41.186Z,99916.13
2023-05-08T20:21:48.024Z,99893.84
2023-05-08T20:25:04.227Z,99925.63
2023-05-08T20:28:16.310Z,99897.16
2023-05-08T20:31:23.179Z,99896.56
2023-05-08T20:34:37.106Z,99890.59
2023-05-08T20:37:48.170Z,99918.16
2023-05-08T20:41:00.811Z,99912.19
2023-05-08T20:44:24.000Z,99920.75
2023-05-08T20:47:51.982Z,99908.72
2023-05-08T20:54:46.454Z,99861.13
2023-05-08T20:57:50.477Z,99875.19
2023-05-08T21:00:54.577Z,99913.16
2023-05-08T21:04:00.499Z,99926.56
2023-05-08T21:07:07.819Z,99928.69
2023-05-08T21:10:12.218Z,99915.75
2023-05-08T21:13:16.646Z,99918.84
2023-05-08T21:16:22.758Z,99916.16
2023-05-08T21:19:27.807Z,99928.34
2023-05-08T21:22:35.037Z,99913.84
2023-05-08T21:25:53.005Z,99928.34
2023-05-08T21:28:59.251Z,99921.13
2023-05-08T21:32:06.999Z,99923.72
2023-05-08T21:35:13.622Z,99935.63
2023-05-08T21:38:18.069Z,99923.13
2023-05-08T21:41:22.808Z,99896.59
2023-05-08T21:44:28.786Z,99909.16
2023-05-08T21:47:37.767Z,99913.88
2023-05-08T21:50:45.093Z,99910.06
2023-05-08T21:53:48.914Z,99906.28
2023-05-08T21:57:00.648Z,99841.84
2023-05-08T22:05:04.989Z,99878.13
2023-05-08T22:08:09.041Z,99864.31
2023-05-08T22:11:21.197Z,99840.78
2023-05-08T22:14:42.725Z,99803.19
2023-05-08T22:18:17.484Z,99799.00
2023-05-08T22:22:43.086Z,99898.16
2023-05-08T22:26:17.138Z,99837.13
2023-05-08T22:38:52.504Z,99828.38
2023-05-08T22:46:28.457Z,99840.69
2023-05-08T22:49:49.089Z,99889.06
2023-05-08T22:52:58.233Z,99883.91
2023-05-08T22:56:05.251Z,99893.13
2023-05-08T22:59:26.016Z,99902.88
2023-05-08T23:02:34.887Z,99881.28
2023-05-08T23:05:39.675Z,99889.38
2023-05-08T23:08:45.942Z,99878.47
2023-05-08T23:11:50.733Z,99892.69
2023-05-08T23:14:54.830Z,99889.09
2023-05-08T23:17:58.882Z,99877.19
2023-05-08T23:21:11.636Z,99889.06
2023-05-08T23:24:15.561Z,99877.63
2023-05-08T23:27:19.626Z,99884.75
2023-05-08T23:30:23.447Z,99857.19
2023-05-08T23:33:27.842Z,99857.66
2023-05-08T23:36:33.852Z,99864.59
2023-05-08T23:39:42.023Z,99876.84
2023-05-08T23:42:46.237Z,99864.69
2023-05-08T23:45:52.788Z,99851.25
2023-05-08T23:49:00.519Z,99867.00
2023-05-08T23:52:07.550Z,99856.00
2023-05-08T23:55:15.465Z,99856.41
2023-05-08T23:58:22.122Z,99873.81
